sensor_id;sensor_type;location;lat;lon;timestamp;P1;durP1;ratioP1;P2;durP2;ratioP2
38779;SDS011;29273;49.962;9.768;2023-07-24T00:00:38;1.95;;;1.58;;
38779;SDS011;29273;49.962;9.768;2023-07-24T00:03:05;1.95;;;1.52;;
38779;SDS011;29273;49.962;9.768;2023-07-24T00:05:31;2.30;;;1.60;;
38779;SDS011;29273;49.962;9.768;2023-07-24T00:07:56;1.65;;;1.40;;
38779;SDS011;29273;49.962;9.768;2023-07-24T00:10:22;1.88;;;1.63;;
38779;SDS011;29273;49.962;9.768;2023-07-24T00:12:47;1.90;;;1.42;;
38779;SDS011;29273;49.962;9.768;2023-07-24T00:15:13;1.90;;;1.70;;
38779;SDS011;29273;49.962;9.768;2023-07-24T00:17:38;2.22;;;1.65;;
38779;SDS011;29273;49.962;9.768;2023-07-24T00:20:04;2.33;;;1.73;;
38779;SDS011;29273;49.962;9.768;2023-07-24T00:22:31;1.73;;;1.40;;
38779;SDS011;29273;49.962;9.768;2023-07-24T00:24:56;1.95;;;1.60;;
38779;SDS011;29273;49.962;9.768;2023-07-24T00:27:22;1.90;;;1.50;;
38779;SDS011;29273;49.962;9.768;2023-07-24T00:29:47;2.42;;;1.58;;
38779;SDS011;29273;49.962;9.768;2023-07-24T00:32:12;2.20;;;1.65;;
38779;SDS011;29273;49.962;9.768;2023-07-24T00:34:38;2.00;;;1.35;;
38779;SDS011;29273;49.962;9.768;2023-07-24T00:37:04;1.98;;;1.77;;
38779;SDS011;29273;49.962;9.768;2023-07-24T00:39:29;1.77;;;1.40;;
38779;SDS011;29273;49.962;9.768;2023-07-24T00:41:56;2.67;;;1.48;;
38779;SDS011;29273;49.962;9.768;2023-07-24T00:44:21;2.67;;;1.60;;
38779;SDS011;29273;49.962;9.768;2023-07-24T00:46:47;1.25;;;1.15;;
38779;SDS011;29273;49.962;9.768;2023-07-24T00:49:13;3.72;;;1.85;;
38779;SDS011;29273;49.962;9.768;2023-07-24T00:51:38;2.88;;;1.55;;
38779;SDS011;29273;49.962;9.768;2023-07-24T00:54:04;1.77;;;1.45;;
38779;SDS011;29273;49.962;9.768;2023-07-24T00:56:31;2.15;;;1.75;;
38779;SDS011;29273;49.962;9.768;2023-07-24T00:58:57;2.70;;;1.70;;
38779;SDS011;29273;49.962;9.768;2023-07-24T01:01:24;2.08;;;1.58;;
38779;SDS011;29273;49.962;9.768;2023-07-24T01:03:52;1.60;;;1.50;;
38779;SDS011;29273;49.962;9.768;2023-07-24T01:06:18;2.45;;;1.60;;
38779;SDS011;29273;49.962;9.768;2023-07-24T01:08:43;1.85;;;1.60;;
38779;SDS011;29273;49.962;9.768;2023-07-24T01:13:56;1.33;;;1.23;;
38779;SDS011;29273;49.962;9.768;2023-07-24T01:16:30;1.80;;;1.60;;
38779;SDS011;29273;49.962;9.768;2023-07-24T01:19:01;1.48;;;1.33;;
38779;SDS011;29273;49.962;9.768;2023-07-24T01:21:33;1.63;;;1.50;;
38779;SDS011;29273;49.962;9.768;2023-07-24T01:26:49;2.97;;;1.90;;
38779;SDS011;29273;49.962;9.768;2023-07-24T01:29:15;1.98;;;1.70;;
38779;SDS011;29273;49.962;9.768;2023-07-24T01:31:40;1.90;;;1.70;;
38779;SDS011;29273;49.962;9.768;2023-07-24T01:34:06;2.45;;;1.80;;
38779;SDS011;29273;49.962;9.768;2023-07-24T01:36:31;3.33;;;1.70;;
38779;SDS011;29273;49.962;9.768;2023-07-24T01:38:57;2.17;;;1.50;;
38779;SDS011;29273;49.962;9.768;2023-07-24T01:41:25;2.83;;;1.60;;
38779;SDS011;29273;49.962;9.768;2023-07-24T01:43:51;2.15;;;1.65;;
38779;SDS011;29273;49.962;9.768;2023-07-24T01:46:16;2.58;;;1.63;;
38779;SDS011;29273;49.962;9.768;2023-07-24T01:48:42;2.78;;;1.63;;
38779;SDS011;29273;49.962;9.768;2023-07-24T01:51:08;1.80;;;1.45;;
38779;SDS011;29273;49.962;9.768;2023-07-24T01:53:33;3.08;;;1.60;;
38779;SDS011;29273;49.962;9.768;2023-07-24T01:55:59;2.25;;;1.60;;
38779;SDS011;29273;49.962;9.768;2023-07-24T01:58:24;2.88;;;1.75;;
38779;SDS011;29273;49.962;9.768;2023-07-24T02:00:50;2.38;;;1.65;;
38779;SDS011;29273;49.962;9.768;2023-07-24T02:03:15;4.28;;;1.85;;
38779;SDS011;29273;49.962;9.768;2023-07-24T02:05:42;2.00;;;1.70;;
38779;SDS011;29273;49.962;9.768;2023-07-24T02:08:08;1.90;;;1.58;;
38779;SDS011;29273;49.962;9.768;2023-07-24T02:10:36;2.17;;;1.60;;
38779;SDS011;29273;49.962;9.768;2023-07-24T02:13:02;5.30;;;1.80;;
38779;SDS011;29273;49.962;9.768;2023-07-24T02:15:27;4.78;;;1.60;;
38779;SDS011;29273;49.962;9.768;2023-07-24T02:17:53;1.85;;;1.52;;
38779;SDS011;29273;49.962;9.768;2023-07-24T02:20:19;3.60;;;1.45;;
38779;SDS011;29273;49.962;9.768;2023-07-24T02:22:44;2.30;;;1.70;;
38779;SDS011;29273;49.962;9.768;2023-07-24T02:25:10;1.70;;;1.55;;
38779;SDS011;29273;49.962;9.768;2023-07-24T02:27:35;2.17;;;1.67;;
38779;SDS011;29273;49.962;9.768;2023-07-24T02:30:01;2.25;;;1.50;;
38779;SDS011;29273;49.962;9.768;2023-07-24T02:32:27;3.08;;;2.00;;
38779;SDS011;29273;49.962;9.768;2023-07-24T02:34:53;3.42;;;1.60;;
38779;SDS011;29273;49.962;9.768;2023-07-24T02:37:19;2.17;;;1.63;;
38779;SDS011;29273;49.962;9.768;2023-07-24T02:39:45;2.38;;;1.90;;
38779;SDS011;29273;49.962;9.768;2023-07-24T02:42:10;2.30;;;1.45;;
38779;SDS011;29273;49.962;9.768;2023-07-24T02:44:36;4.18;;;2.13;;
38779;SDS011;29273;49.962;9.768;2023-07-24T02:47:02;1.88;;;1.58;;
38779;SDS011;29273;49.962;9.768;2023-07-24T02:49:28;3.17;;;1.65;;
38779;SDS011;29273;49.962;9.768;2023-07-24T02:51:54;2.75;;;1.70;;
38779;SDS011;29273;49.962;9.768;2023-07-24T02:54:19;2.45;;;1.80;;
38779;SDS011;29273;49.962;9.768;2023-07-24T02:56:45;2.17;;;1.52;;
38779;SDS011;29273;49.962;9.768;2023-07-24T02:59:10;3.20;;;1.90;;
38779;SDS011;29273;49.962;9.768;2023-07-24T03:01:36;2.85;;;1.73;;
38779;SDS011;29273;49.962;9.768;2023-07-24T03:04:02;1.58;;;1.48;;
38779;SDS011;29273;49.962;9.768;2023-07-24T03:06:29;2.08;;;1.45;;
38779;SDS011;29273;49.962;9.768;2023-07-24T03:08:55;2.50;;;1.70;;
38779;SDS011;29273;49.962;9.768;2023-07-24T03:11:20;2.72;;;1.70;;
38779;SDS011;29273;49.962;9.768;2023-07-24T03:13:46;2.20;;;1.70;;
38779;SDS011;29273;49.962;9.768;2023-07-24T03:16:11;3.55;;;1.98;;
38779;SDS011;29273;49.962;9.768;2023-07-24T03:18:37;2.42;;;1.88;;
38779;SDS011;29273;49.962;9.768;2023-07-24T03:21:02;2.83;;;1.92;;
38779;SDS011;29273;49.962;9.768;2023-07-24T03:23:29;4.70;;;2.03;;
38779;SDS011;29273;49.962;9.768;2023-07-24T03:25:54;2.58;;;2.10;;
38779;SDS011;29273;49.962;9.768;2023-07-24T03:28:20;2.50;;;1.60;;
38779;SDS011;29273;49.962;9.768;2023-07-24T03:30:45;2.10;;;1.70;;
38779;SDS011;29273;49.962;9.768;2023-07-24T03:33:11;3.38;;;1.90;;
38779;SDS011;29273;49.962;9.768;2023-07-24T03:35:37;2.42;;;1.75;;
38779;SDS011;29273;49.962;9.768;2023-07-24T03:38:04;2.55;;;1.92;;
38779;SDS011;29273;49.962;9.768;2023-07-24T03:40:31;2.88;;;2.20;;
38779;SDS011;29273;49.962;9.768;2023-07-24T03:42:57;3.42;;;2.13;;
38779;SDS011;29273;49.962;9.768;2023-07-24T03:45:22;3.15;;;2.47;;
38779;SDS011;29273;49.962;9.768;2023-07-24T03:47:48;3.15;;;2.45;;
38779;SDS011;29273;49.962;9.768;2023-07-24T03:50:13;2.60;;;2.22;;
38779;SDS011;29273;49.962;9.768;2023-07-24T03:52:39;3.28;;;2.30;;
38779;SDS011;29273;49.962;9.768;2023-07-24T03:55:05;2.20;;;2.00;;
38779;SDS011;29273;49.962;9.768;2023-07-24T03:57:33;3.00;;;2.05;;
38779;SDS011;29273;49.962;9.768;2023-07-24T03:59:58;3.13;;;2.30;;
38779;SDS011;29273;49.962;9.768;2023-07-24T04:02:24;4.07;;;2.10;;
38779;SDS011;29273;49.962;9.768;2023-07-24T04:04:49;1.92;;;1.70;;
38779;SDS011;29273;49.962;9.768;2023-07-24T04:07:14;2.05;;;1.85;;
38779;SDS011;29273;49.962;9.768;2023-07-24T04:09:40;3.63;;;2.10;;
38779;SDS011;29273;49.962;9.768;2023-07-24T04:12:05;2.53;;;1.90;;
38779;SDS011;29273;49.962;9.768;2023-07-24T04:14:31;2.03;;;1.60;;
38779;SDS011;29273;49.962;9.768;2023-07-24T04:16:57;2.25;;;1.80;;
38779;SDS011;29273;49.962;9.768;2023-07-24T04:19:22;3.25;;;1.90;;
38779;SDS011;29273;49.962;9.768;2023-07-24T04:21:48;2.67;;;1.92;;
38779;SDS011;29273;49.962;9.768;2023-07-24T04:24:13;2.10;;;1.75;;
38779;SDS011;29273;49.962;9.768;2023-07-24T04:26:39;2.58;;;1.80;;
38779;SDS011;29273;49.962;9.768;2023-07-24T04:29:05;2.35;;;1.98;;
38779;SDS011;29273;49.962;9.768;2023-07-24T04:31:31;2.15;;;1.77;;
38779;SDS011;29273;49.962;9.768;2023-07-24T04:33:56;2.15;;;1.88;;
38779;SDS011;29273;49.962;9.768;2023-07-24T04:36:22;2.30;;;1.95;;
38779;SDS011;29273;49.962;9.768;2023-07-24T04:38:47;2.75;;;1.90;;
38779;SDS011;29273;49.962;9.768;2023-07-24T04:41:13;2.38;;;2.00;;
38779;SDS011;29273;49.962;9.768;2023-07-24T04:43:38;2.42;;;1.75;;
38779;SDS011;29273;49.962;9.768;2023-07-24T04:46:04;2.50;;;1.83;;
38779;SDS011;29273;49.962;9.768;2023-07-24T04:48:29;2.58;;;1.85;;
38779;SDS011;29273;49.962;9.768;2023-07-24T04:50:56;2.10;;;1.83;;
38779;SDS011;29273;49.962;9.768;2023-07-24T04:53:22;2.25;;;1.70;;
38779;SDS011;29273;49.962;9.768;2023-07-24T04:55:48;3.05;;;1.73;;
38779;SDS011;29273;49.962;9.768;2023-07-24T04:58:13;2.08;;;1.65;;
38779;SDS011;29273;49.962;9.768;2023-07-24T05:00:39;2.58;;;2.05;;
38779;SDS011;29273;49.962;9.768;2023-07-24T05:03:04;3.88;;;2.28;;
38779;SDS011;29273;49.962;9.768;2023-07-24T05:05:31;3.97;;;2.03;;
38779;SDS011;29273;49.962;9.768;2023-07-24T05:07:57;2.78;;;2.13;;
38779;SDS011;29273;49.962;9.768;2023-07-24T05:10:22;2.45;;;1.92;;
38779;SDS011;29273;49.962;9.768;2023-07-24T05:12:48;2.75;;;2.03;;
38779;SDS011;29273;49.962;9.768;2023-07-24T05:15:13;3.08;;;2.38;;
38779;SDS011;29273;49.962;9.768;2023-07-24T05:17:42;3.22;;;2.30;;
38779;SDS011;29273;49.962;9.768;2023-07-24T05:20:10;3.35;;;2.60;;
38779;SDS011;29273;49.962;9.768;2023-07-24T05:22:36;3.17;;;2.40;;
38779;SDS011;29273;49.962;9.768;2023-07-24T05:25:02;3.85;;;2.40;;
38779;SDS011;29273;49.962;9.768;2023-07-24T05:27:27;3.53;;;2.40;;
38779;SDS011;29273;49.962;9.768;2023-07-24T05:29:54;2.80;;;2.33;;
38779;SDS011;29273;49.962;9.768;2023-07-24T05:32:20;2.85;;;2.25;;
38779;SDS011;29273;49.962;9.768;2023-07-24T05:34:46;3.40;;;2.67;;
38779;SDS011;29273;49.962;9.768;2023-07-24T05:37:11;3.88;;;2.70;;
38779;SDS011;29273;49.962;9.768;2023-07-24T05:39:37;5.40;;;2.70;;
38779;SDS011;29273;49.962;9.768;2023-07-24T05:42:02;3.63;;;2.70;;
38779;SDS011;29273;49.962;9.768;2023-07-24T05:44:28;3.25;;;2.83;;
38779;SDS011;29273;49.962;9.768;2023-07-24T05:46:54;3.13;;;2.50;;
38779;SDS011;29273;49.962;9.768;2023-07-24T05:49:19;3.45;;;2.80;;
38779;SDS011;29273;49.962;9.768;2023-07-24T05:51:45;3.95;;;2.63;;
38779;SDS011;29273;49.962;9.768;2023-07-24T05:54:10;3.15;;;2.50;;
38779;SDS011;29273;49.962;9.768;2023-07-24T05:56:36;4.72;;;2.75;;
38779;SDS011;29273;49.962;9.768;2023-07-24T05:59:01;3.72;;;2.83;;
38779;SDS011;29273;49.962;9.768;2023-07-24T06:01:27;2.85;;;2.40;;
38779;SDS011;29273;49.962;9.768;2023-07-24T06:03:52;3.33;;;2.40;;
38779;SDS011;29273;49.962;9.768;2023-07-24T06:06:18;3.30;;;2.38;;
38779;SDS011;29273;49.962;9.768;2023-07-24T06:08:44;2.78;;;2.10;;
38779;SDS011;29273;49.962;9.768;2023-07-24T06:11:10;3.55;;;2.67;;
38779;SDS011;29273;49.962;9.768;2023-07-24T06:13:35;4.05;;;2.72;;
38779;SDS011;29273;49.962;9.768;2023-07-24T06:16:01;3.15;;;2.72;;
38779;SDS011;29273;49.962;9.768;2023-07-24T06:18:26;2.65;;;2.35;;
38779;SDS011;29273;49.962;9.768;2023-07-24T06:20:52;3.58;;;2.60;;
38779;SDS011;29273;49.962;9.768;2023-07-24T06:23:18;2.95;;;2.40;;
38779;SDS011;29273;49.962;9.768;2023-07-24T06:25:44;2.92;;;2.30;;
38779;SDS011;29273;49.962;9.768;2023-07-24T06:28:09;3.30;;;2.40;;
38779;SDS011;29273;49.962;9.768;2023-07-24T06:30:35;3.30;;;2.63;;
38779;SDS011;29273;49.962;9.768;2023-07-24T06:33:00;3.30;;;2.33;;
38779;SDS011;29273;49.962;9.768;2023-07-24T06:35:26;3.45;;;2.55;;
38779;SDS011;29273;49.962;9.768;2023-07-24T06:37:51;3.55;;;2.97;;
38779;SDS011;29273;49.962;9.768;2023-07-24T06:40:17;2.72;;;2.53;;
38779;SDS011;29273;49.962;9.768;2023-07-24T06:42:42;3.60;;;2.70;;
38779;SDS011;29273;49.962;9.768;2023-07-24T06:45:08;3.13;;;2.58;;
38779;SDS011;29273;49.962;9.768;2023-07-24T06:47:33;3.20;;;2.58;;
38779;SDS011;29273;49.962;9.768;2023-07-24T06:49:59;3.38;;;2.70;;
38779;SDS011;29273;49.962;9.768;2023-07-24T06:52:24;3.10;;;2.47;;
38779;SDS011;29273;49.962;9.768;2023-07-24T06:54:50;2.65;;;2.10;;
38779;SDS011;29273;49.962;9.768;2023-07-24T06:57:15;2.75;;;2.38;;
38779;SDS011;29273;49.962;9.768;2023-07-24T06:59:41;3.67;;;2.47;;
38779;SDS011;29273;49.962;9.768;2023-07-24T07:02:06;3.47;;;2.55;;
38779;SDS011;29273;49.962;9.768;2023-07-24T07:04:32;5.55;;;2.88;;
38779;SDS011;29273;49.962;9.768;2023-07-24T07:06:57;3.95;;;2.95;;
38779;SDS011;29273;49.962;9.768;2023-07-24T07:09:23;3.80;;;2.67;;
38779;SDS011;29273;49.962;9.768;2023-07-24T07:11:48;3.80;;;2.78;;
38779;SDS011;29273;49.962;9.768;2023-07-24T07:14:14;3.05;;;2.47;;
38779;SDS011;29273;49.962;9.768;2023-07-24T07:16:39;3.78;;;3.10;;
38779;SDS011;29273;49.962;9.768;2023-07-24T07:19:06;3.35;;;2.60;;
38779;SDS011;29273;49.962;9.768;2023-07-24T07:21:31;3.33;;;2.78;;
38779;SDS011;29273;49.962;9.768;2023-07-24T07:23:57;3.92;;;2.80;;
38779;SDS011;29273;49.962;9.768;2023-07-24T07:26:22;4.22;;;2.88;;
38779;SDS011;29273;49.962;9.768;2023-07-24T07:28:48;5.03;;;3.00;;
38779;SDS011;29273;49.962;9.768;2023-07-24T07:31:13;3.60;;;2.58;;
38779;SDS011;29273;49.962;9.768;2023-07-24T07:33:39;4.35;;;3.28;;
38779;SDS011;29273;49.962;9.768;2023-07-24T07:36:05;4.25;;;2.85;;
38779;SDS011;29273;49.962;9.768;2023-07-24T07:38:31;3.90;;;2.50;;
38779;SDS011;29273;49.962;9.768;2023-07-24T07:40:57;4.93;;;2.70;;
38779;SDS011;29273;49.962;9.768;2023-07-24T07:43:22;4.32;;;3.00;;
38779;SDS011;29273;49.962;9.768;2023-07-24T07:45:48;4.03;;;3.10;;
38779;SDS011;29273;49.962;9.768;2023-07-24T07:48:14;4.88;;;2.83;;
38779;SDS011;29273;49.962;9.768;2023-07-24T07:50:39;3.80;;;2.83;;
38779;SDS011;29273;49.962;9.768;2023-07-24T07:53:05;3.20;;;2.53;;
38779;SDS011;29273;49.962;9.768;2023-07-24T07:55:30;4.93;;;2.92;;
38779;SDS011;29273;49.962;9.768;2023-07-24T07:57:56;4.43;;;3.35;;
38779;SDS011;29273;49.962;9.768;2023-07-24T08:00:21;4.07;;;3.20;;
38779;SDS011;29273;49.962;9.768;2023-07-24T08:02:47;4.78;;;3.70;;
38779;SDS011;29273;49.962;9.768;2023-07-24T08:05:13;3.75;;;3.30;;
38779;SDS011;29273;49.962;9.768;2023-07-24T08:07:38;4.03;;;3.15;;
38779;SDS011;29273;49.962;9.768;2023-07-24T08:10:04;3.88;;;2.97;;
38779;SDS011;29273;49.962;9.768;2023-07-24T08:12:30;3.60;;;3.20;;
38779;SDS011;29273;49.962;9.768;2023-07-24T08:14:55;3.67;;;3.08;;
38779;SDS011;29273;49.962;9.768;2023-07-24T08:17:21;4.50;;;3.58;;
38779;SDS011;29273;49.962;9.768;2023-07-24T08:19:47;4.47;;;3.55;;
38779;SDS011;29273;49.962;9.768;2023-07-24T08:22:13;4.07;;;3.25;;
38779;SDS011;29273;49.962;9.768;2023-07-24T08:24:38;3.88;;;3.40;;
38779;SDS011;29273;49.962;9.768;2023-07-24T08:27:04;3.80;;;3.30;;
38779;SDS011;29273;49.962;9.768;2023-07-24T08:29:29;3.90;;;3.50;;
38779;SDS011;29273;49.962;9.768;2023-07-24T08:31:55;4.40;;;3.55;;
38779;SDS011;29273;49.962;9.768;2023-07-24T08:34:20;5.72;;;4.50;;
38779;SDS011;29273;49.962;9.768;2023-07-24T08:36:46;4.22;;;3.63;;
38779;SDS011;29273;49.962;9.768;2023-07-24T08:39:11;4.85;;;4.15;;
38779;SDS011;29273;49.962;9.768;2023-07-24T08:41:37;5.05;;;3.83;;
38779;SDS011;29273;49.962;9.768;2023-07-24T08:44:09;5.43;;;3.55;;
38779;SDS011;29273;49.962;9.768;2023-07-24T08:46:36;4.47;;;3.60;;
38779;SDS011;29273;49.962;9.768;2023-07-24T08:49:02;4.80;;;3.53;;
38779;SDS011;29273;49.962;9.768;2023-07-24T08:51:28;5.15;;;3.72;;
38779;SDS011;29273;49.962;9.768;2023-07-24T08:53:55;5.15;;;3.63;;
38779;SDS011;29273;49.962;9.768;2023-07-24T08:56:21;5.43;;;3.53;;
38779;SDS011;29273;49.962;9.768;2023-07-24T08:58:46;5.97;;;4.03;;
38779;SDS011;29273;49.962;9.768;2023-07-24T09:01:12;6.57;;;4.25;;
38779;SDS011;29273;49.962;9.768;2023-07-24T09:03:37;5.35;;;4.07;;
38779;SDS011;29273;49.962;9.768;2023-07-24T09:06:03;6.07;;;4.85;;
38779;SDS011;29273;49.962;9.768;2023-07-24T09:08:36;5.32;;;4.43;;
38779;SDS011;29273;49.962;9.768;2023-07-24T09:11:03;4.95;;;4.32;;
38779;SDS011;29273;49.962;9.768;2023-07-24T09:13:30;5.15;;;4.00;;
38779;SDS011;29273;49.962;9.768;2023-07-24T09:15:56;5.70;;;4.40;;
38779;SDS011;29273;49.962;9.768;2023-07-24T09:18:22;6.22;;;4.78;;
38779;SDS011;29273;49.962;9.768;2023-07-24T09:20:48;5.05;;;4.55;;
38779;SDS011;29273;49.962;9.768;2023-07-24T09:23:14;5.10;;;4.13;;
38779;SDS011;29273;49.962;9.768;2023-07-24T09:25:41;4.40;;;3.90;;
38779;SDS011;29273;49.962;9.768;2023-07-24T09:28:14;5.20;;;4.00;;
38779;SDS011;29273;49.962;9.768;2023-07-24T09:30:41;5.47;;;4.05;;
38779;SDS011;29273;49.962;9.768;2023-07-24T09:33:16;4.40;;;3.65;;
38779;SDS011;29273;49.962;9.768;2023-07-24T09:35:41;4.40;;;3.90;;
38779;SDS011;29273;49.962;9.768;2023-07-24T09:38:07;4.40;;;3.75;;
38779;SDS011;29273;49.962;9.768;2023-07-24T09:40:41;4.28;;;3.50;;
38779;SDS011;29273;49.962;9.768;2023-07-24T09:43:15;5.53;;;3.88;;
38779;SDS011;29273;49.962;9.768;2023-07-24T09:45:41;4.50;;;3.95;;
38779;SDS011;29273;49.962;9.768;2023-07-24T09:48:08;4.53;;;4.03;;
38779;SDS011;29273;49.962;9.768;2023-07-24T09:50:37;4.28;;;3.70;;
38779;SDS011;29273;49.962;9.768;2023-07-24T09:53:04;5.35;;;3.85;;
38779;SDS011;29273;49.962;9.768;2023-07-24T09:55:35;4.70;;;4.07;;
38779;SDS011;29273;49.962;9.768;2023-07-24T09:58:06;5.18;;;3.78;;
38779;SDS011;29273;49.962;9.768;2023-07-24T10:00:32;4.68;;;3.22;;
38779;SDS011;29273;49.962;9.768;2023-07-24T10:02:58;4.75;;;3.13;;
38779;SDS011;29273;49.962;9.768;2023-07-24T10:05:24;4.97;;;3.65;;
38779;SDS011;29273;49.962;9.768;2023-07-24T10:07:50;3.83;;;3.42;;
38779;SDS011;29273;49.962;9.768;2023-07-24T10:10:16;4.28;;;3.88;;
38779;SDS011;29273;49.962;9.768;2023-07-24T10:12:42;5.13;;;4.15;;
38779;SDS011;29273;49.962;9.768;2023-07-24T10:15:09;4.65;;;3.53;;
38779;SDS011;29273;49.962;9.768;2023-07-24T10:20:04;4.85;;;3.83;;
38779;SDS011;29273;49.962;9.768;2023-07-24T10:22:31;4.20;;;3.45;;
38779;SDS011;29273;49.962;9.768;2023-07-24T10:24:56;4.03;;;3.53;;
38779;SDS011;29273;49.962;9.768;2023-07-24T10:27:25;3.88;;;3.30;;
38779;SDS011;29273;49.962;9.768;2023-07-24T10:30:00;4.65;;;3.60;;
38779;SDS011;29273;49.962;9.768;2023-07-24T10:32:30;4.43;;;3.53;;
38779;SDS011;29273;49.962;9.768;2023-07-24T10:35:00;5.13;;;3.70;;
38779;SDS011;29273;49.962;9.768;2023-07-24T10:37:33;4.13;;;3.28;;
38779;SDS011;29273;49.962;9.768;2023-07-24T10:40:00;4.05;;;3.33;;
38779;SDS011;29273;49.962;9.768;2023-07-24T10:42:25;4.03;;;3.63;;
38779;SDS011;29273;49.962;9.768;2023-07-24T10:45:01;3.70;;;3.33;;
38779;SDS011;29273;49.962;9.768;2023-07-24T10:47:36;4.80;;;3.70;;
38779;SDS011;29273;49.962;9.768;2023-07-24T10:50:02;4.55;;;3.75;;
38779;SDS011;29273;49.962;9.768;2023-07-24T10:52:29;3.60;;;3.20;;
38779;SDS011;29273;49.962;9.768;2023-07-24T10:54:56;3.05;;;2.75;;
38779;SDS011;29273;49.962;9.768;2023-07-24T10:57:25;3.63;;;3.20;;
38779;SDS011;29273;49.962;9.768;2023-07-24T10:59:52;4.13;;;3.25;;
38779;SDS011;29273;49.962;9.768;2023-07-24T11:02:17;4.18;;;3.33;;
38779;SDS011;29273;49.962;9.768;2023-07-24T11:04:43;3.83;;;3.42;;
38779;SDS011;29273;49.962;9.768;2023-07-24T11:07:08;5.00;;;3.50;;
38779;SDS011;29273;49.962;9.768;2023-07-24T11:09:37;4.45;;;3.47;;
38779;SDS011;29273;49.962;9.768;2023-07-24T11:12:09;4.40;;;3.90;;
38779;SDS011;29273;49.962;9.768;2023-07-24T11:14:35;3.63;;;3.20;;
38779;SDS011;29273;49.962;9.768;2023-07-24T11:17:01;3.60;;;3.22;;
38779;SDS011;29273;49.962;9.768;2023-07-24T11:19:26;5.03;;;3.85;;
38779;SDS011;29273;49.962;9.768;2023-07-24T11:21:51;4.95;;;3.55;;
38779;SDS011;29273;49.962;9.768;2023-07-24T11:24:17;3.92;;;3.35;;
38779;SDS011;29273;49.962;9.768;2023-07-24T11:26:43;4.78;;;4.03;;
38779;SDS011;29273;49.962;9.768;2023-07-24T11:29:12;4.85;;;3.92;;
38779;SDS011;29273;49.962;9.768;2023-07-24T11:31:38;4.80;;;3.92;;
38779;SDS011;29273;49.962;9.768;2023-07-24T11:34:04;3.95;;;3.55;;
38779;SDS011;29273;49.962;9.768;2023-07-24T11:36:30;3.90;;;3.42;;
38779;SDS011;29273;49.962;9.768;2023-07-24T11:38:57;4.22;;;3.50;;
38779;SDS011;29273;49.962;9.768;2023-07-24T11:41:22;4.45;;;3.88;;
38779;SDS011;29273;49.962;9.768;2023-07-24T11:43:49;4.38;;;3.70;;
38779;SDS011;29273;49.962;9.768;2023-07-24T11:46:22;4.70;;;3.70;;
38779;SDS011;29273;49.962;9.768;2023-07-24T11:48:51;3.80;;;3.38;;
38779;SDS011;29273;49.962;9.768;2023-07-24T11:51:21;3.88;;;3.38;;
38779;SDS011;29273;49.962;9.768;2023-07-24T11:53:50;4.35;;;3.53;;
38779;SDS011;29273;49.962;9.768;2023-07-24T11:56:17;3.97;;;3.10;;
38779;SDS011;29273;49.962;9.768;2023-07-24T11:58:44;5.05;;;3.75;;
38779;SDS011;29273;49.962;9.768;2023-07-24T12:01:12;3.65;;;3.25;;
38779;SDS011;29273;49.962;9.768;2023-07-24T12:03:39;3.70;;;3.28;;
38779;SDS011;29273;49.962;9.768;2023-07-24T12:06:05;4.50;;;3.28;;
38779;SDS011;29273;49.962;9.768;2023-07-24T12:08:39;3.50;;;3.05;;
38779;SDS011;29273;49.962;9.768;2023-07-24T12:11:05;3.50;;;3.15;;
38779;SDS011;29273;49.962;9.768;2023-07-24T12:13:41;3.88;;;3.17;;
38779;SDS011;29273;49.962;9.768;2023-07-24T12:16:06;4.57;;;3.25;;
38779;SDS011;29273;49.962;9.768;2023-07-24T12:18:32;3.83;;;3.20;;
38779;SDS011;29273;49.962;9.768;2023-07-24T12:20:57;4.57;;;3.78;;
38779;SDS011;29273;49.962;9.768;2023-07-24T12:23:23;4.93;;;3.45;;
38779;SDS011;29273;49.962;9.768;2023-07-24T12:25:48;4.20;;;3.80;;
38779;SDS011;29273;49.962;9.768;2023-07-24T12:28:14;3.47;;;3.05;;
38779;SDS011;29273;49.962;9.768;2023-07-24T12:30:39;4.50;;;3.90;;
38779;SDS011;29273;49.962;9.768;2023-07-24T12:33:05;4.50;;;3.50;;
38779;SDS011;29273;49.962;9.768;2023-07-24T12:35:30;3.67;;;3.17;;
38779;SDS011;29273;49.962;9.768;2023-07-24T12:37:56;5.70;;;3.95;;
38779;SDS011;29273;49.962;9.768;2023-07-24T12:40:22;4.90;;;3.90;;
38779;SDS011;29273;49.962;9.768;2023-07-24T12:42:48;3.92;;;3.33;;
38779;SDS011;29273;49.962;9.768;2023-07-24T12:45:13;4.65;;;3.90;;
38779;SDS011;29273;49.962;9.768;2023-07-24T12:47:39;3.72;;;3.25;;
38779;SDS011;29273;49.962;9.768;2023-07-24T12:50:04;3.67;;;3.28;;
38779;SDS011;29273;49.962;9.768;2023-07-24T12:52:30;3.58;;;3.10;;
38779;SDS011;29273;49.962;9.768;2023-07-24T12:54:56;4.05;;;3.50;;
38779;SDS011;29273;49.962;9.768;2023-07-24T12:57:21;4.32;;;3.25;;
38779;SDS011;29273;49.962;9.768;2023-07-24T12:59:47;4.38;;;3.65;;
38779;SDS011;29273;49.962;9.768;2023-07-24T13:02:12;4.22;;;3.63;;
38779;SDS011;29273;49.962;9.768;2023-07-24T13:04:38;3.65;;;2.90;;
38779;SDS011;29273;49.962;9.768;2023-07-24T13:07:03;4.47;;;3.53;;
38779;SDS011;29273;49.962;9.768;2023-07-24T13:09:30;3.30;;;3.00;;
38779;SDS011;29273;49.962;9.768;2023-07-24T13:11:55;4.13;;;3.30;;
38779;SDS011;29273;49.962;9.768;2023-07-24T13:14:21;4.10;;;3.42;;
38779;SDS011;29273;49.962;9.768;2023-07-24T13:16:46;4.15;;;3.50;;
38779;SDS011;29273;49.962;9.768;2023-07-24T13:19:12;3.60;;;3.20;;
38779;SDS011;29273;49.962;9.768;2023-07-24T13:21:37;4.00;;;3.55;;
38779;SDS011;29273;49.962;9.768;2023-07-24T13:24:05;4.25;;;3.38;;
38779;SDS011;29273;49.962;9.768;2023-07-24T13:26:31;6.63;;;4.35;;
38779;SDS011;29273;49.962;9.768;2023-07-24T13:28:57;5.60;;;4.38;;
38779;SDS011;29273;49.962;9.768;2023-07-24T13:31:22;5.00;;;3.90;;
38779;SDS011;29273;49.962;9.768;2023-07-24T13:33:48;4.03;;;3.63;;
38779;SDS011;29273;49.962;9.768;2023-07-24T13:36:13;4.70;;;3.78;;
38779;SDS011;29273;49.962;9.768;2023-07-24T13:38:39;4.28;;;3.85;;
38779;SDS011;29273;49.962;9.768;2023-07-24T13:41:05;4.13;;;3.72;;
38779;SDS011;29273;49.962;9.768;2023-07-24T13:43:31;4.05;;;3.45;;
38779;SDS011;29273;49.962;9.768;2023-07-24T13:45:58;3.35;;;3.03;;
38779;SDS011;29273;49.962;9.768;2023-07-24T13:48:24;3.85;;;3.20;;
38779;SDS011;29273;49.962;9.768;2023-07-24T13:50:52;3.50;;;3.10;;
38779;SDS011;29273;49.962;9.768;2023-07-24T13:53:17;4.03;;;3.63;;
38779;SDS011;29273;49.962;9.768;2023-07-24T13:55:43;5.03;;;3.88;;
38779;SDS011;29273;49.962;9.768;2023-07-24T13:58:08;3.95;;;3.55;;
38779;SDS011;29273;49.962;9.768;2023-07-24T14:00:34;5.10;;;4.30;;
38779;SDS011;29273;49.962;9.768;2023-07-24T14:03:00;3.95;;;3.50;;
38779;SDS011;29273;49.962;9.768;2023-07-24T14:05:25;4.57;;;3.92;;
38779;SDS011;29273;49.962;9.768;2023-07-24T14:07:51;5.38;;;4.25;;
38779;SDS011;29273;49.962;9.768;2023-07-24T14:10:16;5.03;;;3.75;;
38779;SDS011;29273;49.962;9.768;2023-07-24T14:12:42;4.70;;;3.83;;
38779;SDS011;29273;49.962;9.768;2023-07-24T14:15:08;4.38;;;3.97;;
38779;SDS011;29273;49.962;9.768;2023-07-24T14:17:33;5.13;;;4.03;;
38779;SDS011;29273;49.962;9.768;2023-07-24T14:20:01;5.32;;;4.15;;
38779;SDS011;29273;49.962;9.768;2023-07-24T14:22:27;4.63;;;3.53;;
38779;SDS011;29273;49.962;9.768;2023-07-24T14:24:52;4.10;;;3.55;;
38779;SDS011;29273;49.962;9.768;2023-07-24T14:27:18;4.78;;;4.20;;
38779;SDS011;29273;49.962;9.768;2023-07-24T14:29:44;5.20;;;4.18;;
38779;SDS011;29273;49.962;9.768;2023-07-24T14:32:09;5.32;;;3.90;;
38779;SDS011;29273;49.962;9.768;2023-07-24T14:34:35;3.97;;;3.50;;
38779;SDS011;29273;49.962;9.768;2023-07-24T14:37:00;3.83;;;3.28;;
38779;SDS011;29273;49.962;9.768;2023-07-24T14:39:26;5.25;;;4.45;;
38779;SDS011;29273;49.962;9.768;2023-07-24T14:41:51;5.07;;;4.13;;
38779;SDS011;29273;49.962;9.768;2023-07-24T14:44:17;4.57;;;3.92;;
38779;SDS011;29273;49.962;9.768;2023-07-24T14:46:42;5.35;;;4.22;;
38779;SDS011;29273;49.962;9.768;2023-07-24T14:49:08;4.38;;;3.50;;